Time;durP1;ratioP1;P1;durP2;ratioP2;P2;SDS_P1;SDS_P2;PMS_P1;PMS_P2;Temp;Humidity;BMP_temperature;BMP_pressure;BME280_temperature;BME280_humidity;BME280_pressure;Samples;Min_cycle;Max_cycle;Signal;HPM_P1;HPM_P2
2022/08/13 00:02:17;;;;;;;;;;;18.00;99.90;;;;;;6196787;23;19915;-66
2022/08/13 00:05:05;;;;;;;;;;;18.00;99.90;;;;;;6221147;22;19947;-66
2022/08/13 00:07:29;;;;;;;;;;;18.00;99.90;;;;;;6220703;23;19915;-68
2022/08/13 00:09:56;;;;;;;;;;;17.90;99.90;;;;;;6221800;23;20255;-65
2022/08/13 00:15:27;;;;;;;;;;;18.00;99.90;;;;;;6172254;23;20207;-66
2022/08/13 00:17:54;;;;;;;;;;;18.00;99.90;;;;;;6221527;23;19922;-67
2022/08/13 00:20:22;;;;;;;;;;;18.00;99.90;;;;;;6221401;23;19943;-66
2022/08/13 00:22:48;;;;;;;;;;;18.00;99.90;;;;;;6221617;23;19920;-65
2022/08/13 00:25:14;;;;;;;;;;;18.00;99.90;;;;;;6246354;22;19922;-65
2022/08/13 00:27:47;;;;;;;;;;;17.90;99.90;;;;;;6221422;23;19951;-66
2022/08/13 00:30:15;;;;;;;;;;;17.90;99.90;;;;;;6221001;23;19916;-66
2022/08/13 00:32:41;;;;;;;;;;;17.80;99.90;;;;;;6248490;23;19977;-66
2022/08/13 00:35:07;;;;;;;;;;;17.80;99.90;;;;;;6221062;22;19916;-65
2022/08/13 00:37:32;;;;;;;;;;;17.70;99.90;;;;;;6221376;23;19920;-66
2022/08/13 00:39:58;;;;;;;;;;;17.70;99.90;;;;;;6221607;23;19915;-66
2022/08/13 00:42:24;;;;;;;;;;;17.70;99.90;;;;;;6221427;23;19957;-66
2022/08/13 00:44:50;;;;;;;;;;;17.60;99.90;;;;;;6248020;22;19990;-65
2022/08/13 00:50:00;;;;;;;;;;;17.50;99.90;;;;;;6248278;23;19922;-66
2022/08/13 00:52:30;;;;;;;;;;;17.50;99.90;;;;;;6221003;23;19915;-66
2022/08/13 00:55:07;;;;;;;;;;;17.40;99.90;;;;;;6247223;22;20361;-65
2022/08/13 00:57:33;;;;;;;;;;;17.40;99.90;;;;;;6246080;23;19923;-66
2022/08/13 01:00:00;;;;;;;;;;;17.30;99.90;;;;;;6194814;23;19916;-65
2022/08/13 01:02:25;;;;;;;;;;;17.30;99.90;;;;;;6219716;23;20223;-66
2022/08/13 01:04:54;;;;;;;;;;;17.30;99.90;;;;;;6221712;22;20005;-65
2022/08/13 01:07:20;;;;;;;;;;;17.30;99.90;;;;;;6220518;23;19919;-66
2022/08/13 01:09:46;;;;;;;;;;;17.30;99.90;;;;;;6247183;23;19919;-65
2022/08/13 01:12:13;;;;;;;;;;;17.30;99.90;;;;;;6220532;23;19919;-66
2022/08/13 01:14:39;;;;;;;;;;;17.20;99.90;;;;;;6220775;23;19915;-66
2022/08/13 01:17:05;;;;;;;;;;;17.20;99.90;;;;;;6247722;22;19919;-65
2022/08/13 01:19:31;;;;;;;;;;;17.20;99.90;;;;;;6221117;23;19964;-67
2022/08/13 01:21:59;;;;;;;;;;;17.10;99.90;;;;;;6221073;23;19916;-66
2022/08/13 01:24:25;;;;;;;;;;;17.10;99.90;;;;;;6246537;23;19959;-66
2022/08/13 01:26:52;;;;;;;;;;;17.10;99.90;;;;;;6247788;22;19915;-66
2022/08/13 01:29:18;;;;;;;;;;;17.10;99.90;;;;;;6221030;23;19919;-65
2022/08/13 01:31:44;;;;;;;;;;;17.10;99.90;;;;;;6220914;23;20251;-65
2022/08/13 01:34:11;;;;;;;;;;;17.00;99.90;;;;;;6245893;23;19962;-66
2022/08/13 01:36:37;;;;;;;;;;;17.00;99.90;;;;;;6219781;23;19919;-66
2022/08/13 01:39:05;;;;;;;;;;;17.00;99.90;;;;;;6220423;23;19915;-65
2022/08/13 01:41:31;;;;;;;;;;;17.00;99.90;;;;;;6220810;23;20270;-66
2022/08/13 01:44:04;;;;;;;;;;;17.00;99.90;;;;;;6220726;23;19955;-66
2022/08/13 01:50:28;;;;;;;;;;;17.00;99.90;;;;;;6220211;23;19930;-67
2022/08/13 01:52:00;;;;;;;;;;;17.00;99.90;;;;;;6225129;23;19939;-66
2022/08/13 01:54:26;;;;;;;;;;;17.00;99.90;;;;;;6219559;23;20322;-66
2022/08/13 01:56:52;;;;;;;;;;;16.90;99.90;;;;;;6220611;23;19916;-65
2022/08/13 01:59:18;;;;;;;;;;;16.90;99.90;;;;;;6220504;23;19915;-65
2022/08/13 02:01:45;;;;;;;;;;;16.90;99.90;;;;;;6220638;23;19994;-65
2022/08/13 02:04:13;;;;;;;;;;;16.80;99.90;;;;;;6220680;23;19916;-65
2022/08/13 02:06:40;;;;;;;;;;;16.80;99.90;;;;;;6247394;22;19947;-65
2022/08/13 02:09:07;;;;;;;;;;;16.80;99.90;;;;;;6245683;23;19926;-66
2022/08/13 02:11:34;;;;;;;;;;;16.70;99.90;;;;;;6245762;23;19994;-65
2022/08/13 02:14:02;;;;;;;;;;;16.70;99.90;;;;;;6246795;23;19916;-65
2022/08/13 02:16:29;;;;;;;;;;;16.70;99.90;;;;;;6220389;23;19916;-65
2022/08/13 02:18:54;;;;;;;;;;;16.70;99.90;;;;;;6220829;23;19922;-66
2022/08/13 02:21:22;;;;;;;;;;;16.70;99.90;;;;;;6220148;23;19916;-66
2022/08/13 02:23:56;;;;;;;;;;;16.70;99.90;;;;;;6220354;23;19915;-65
2022/08/13 02:26:27;;;;;;;;;;;16.60;99.90;;;;;;6246918;22;19922;-66
2022/08/13 02:28:54;;;;;;;;;;;16.60;99.90;;;;;;6220770;23;19962;-66
2022/08/13 02:31:21;;;;;;;;;;;16.60;99.90;;;;;;6247052;23;19915;-65
2022/08/13 02:33:46;;;;;;;;;;;16.50;99.90;;;;;;6220499;23;19920;-65
2022/08/13 02:36:12;;;;;;;;;;;16.60;99.90;;;;;;6220240;23;20245;-65
2022/08/13 02:38:38;;;;;;;;;;;16.50;99.90;;;;;;6246939;23;19969;-64
2022/08/13 02:44:02;;;;;;;;;;;16.50;99.90;;;;;;6170630;23;19953;-66
2022/08/13 02:46:27;;;;;;;;;;;16.50;99.90;;;;;;6219774;23;19915;-67
2022/08/13 02:48:53;;;;;;;;;;;16.40;99.90;;;;;;6245348;23;19915;-67
2022/08/13 02:51:20;;;;;;;;;;;16.40;99.90;;;;;;6245137;23;20311;-66
2022/08/13 02:53:47;;;;;;;;;;;16.40;99.90;;;;;;6220069;23;19920;-66
2022/08/13 02:56:12;;;;;;;;;;;16.40;99.90;;;;;;6219949;23;19919;-67
2022/08/13 02:58:41;;;;;;;;;;;16.40;99.90;;;;;;6244675;23;19966;-66
2022/08/13 03:01:10;;;;;;;;;;;16.50;99.90;;;;;;6220225;23;19926;-66
2022/08/13 03:03:36;;;;;;;;;;;16.60;99.90;;;;;;6219464;23;20089;-66
2022/08/13 03:06:01;;;;;;;;;;;16.70;99.90;;;;;;6246875;22;19961;-67
2022/08/13 03:08:30;;;;;;;;;;;16.70;99.90;;;;;;6220223;23;19986;-66
2022/08/13 03:10:56;;;;;;;;;;;16.70;99.90;;;;;;6247009;23;19915;-65
2022/08/13 03:13:25;;;;;;;;;;;16.80;99.90;;;;;;6195251;23;19923;-67
2022/08/13 03:15:55;;;;;;;;;;;16.90;99.90;;;;;;6220072;23;19961;-66
2022/08/13 03:18:21;;;;;;;;;;;16.90;99.90;;;;;;6195017;23;20319;-67
2022/08/13 03:20:46;;;;;;;;;;;17.00;99.90;;;;;;6194923;23;19966;-66
2022/08/13 03:23:12;;;;;;;;;;;17.10;99.90;;;;;;6220248;23;19973;-67
2022/08/13 03:25:37;;;;;;;;;;;17.10;99.90;;;;;;6220153;23;19916;-67
2022/08/13 03:28:04;;;;;;;;;;;17.20;99.90;;;;;;6245530;23;19916;-66
2022/08/13 03:30:34;;;;;;;;;;;17.30;99.90;;;;;;6219337;23;19990;-66
2022/08/13 03:33:09;;;;;;;;;;;17.40;99.90;;;;;;6195818;23;19922;-67
2022/08/13 03:35:36;;;;;;;;;;;17.50;99.90;;;;;;6219655;23;19915;-67
2022/08/13 03:38:02;;;;;;;;;;;17.60;99.90;;;;;;6219949;23;20019;-66
2022/08/13 03:41:00;;;;;;;;;;;17.50;99.90;;;;;;6245422;23;19951;-66
2022/08/13 03:43:17;;;;;;;;;;;17.50;99.90;;;;;;6219960;23;19969;-66
2022/08/13 03:45:44;;;;;;;;;;;17.50;99.90;;;;;;6246806;22;19990;-67
2022/08/13 03:48:12;;;;;;;;;;;17.50;99.90;;;;;;6219646;23;19997;-66
2022/08/13 03:50:39;;;;;;;;;;;17.50;99.90;;;;;;6219897;23;19916;-67
2022/08/13 03:53:05;;;;;;;;;;;17.50;99.90;;;;;;6246775;23;20229;-66
2022/08/13 03:55:31;;;;;;;;;;;17.40;99.90;;;;;;6246740;22;19915;-67
2022/08/13 03:57:58;;;;;;;;;;;17.50;99.90;;;;;;6243862;23;19994;-66
2022/08/13 04:00:28;;;;;;;;;;;17.40;99.90;;;;;;6219186;23;20388;-67
2022/08/13 04:02:57;;;;;;;;;;;17.40;99.90;;;;;;6245416;23;20235;-66
2022/08/13 04:05:23;;;;;;;;;;;17.40;99.90;;;;;;6196344;22;19916;-66
2022/08/13 04:07:50;;;;;;;;;;;17.40;99.90;;;;;;6221451;23;20381;-67
2022/08/13 04:10:16;;;;;;;;;;;17.40;99.90;;;;;;6221788;23;19978;-65
2022/08/13 04:12:42;;;;;;;;;;;17.40;99.90;;;;;;6221241;23;20330;-67
2022/08/13 04:15:08;;;;;;;;;;;17.40;99.90;;;;;;6221580;22;19915;-67
2022/08/13 04:17:37;;;;;;;;;;;17.50;99.90;;;;;;6221666;23;19915;-66
2022/08/13 04:20:09;;;;;;;;;;;17.60;99.90;;;;;;6221762;23;19931;-67
2022/08/13 04:22:36;;;;;;;;;;;17.50;99.90;;;;;;6221716;23;19916;-66
2022/08/13 04:25:06;;;;;;;;;;;17.50;99.90;;;;;;6248276;23;19969;-66
2022/08/13 04:27:32;;;;;;;;;;;17.60;99.90;;;;;;6221134;23;19919;-67
2022/08/13 04:29:58;;;;;;;;;;;17.60;99.90;;;;;;6219830;23;19967;-67
2022/08/13 04:32:24;;;;;;;;;;;17.60;99.90;;;;;;6220829;23;20270;-67
2022/08/13 04:34:50;;;;;;;;;;;17.60;99.90;;;;;;6248448;23;19915;-68
2022/08/13 04:37:16;;;;;;;;;;;17.70;99.90;;;;;;6221389;23;19915;-66
2022/08/13 04:39:42;;;;;;;;;;;17.70;99.90;;;;;;6221429;23;19919;-66
2022/08/13 04:42:08;;;;;;;;;;;17.80;99.90;;;;;;6221139;23;19922;-67
2022/08/13 04:44:34;;;;;;;;;;;17.80;99.90;;;;;;6221470;23;19915;-66
2022/08/13 04:46:59;;;;;;;;;;;17.80;99.90;;;;;;6221100;23;19923;-67
2022/08/13 04:49:25;;;;;;;;;;;17.80;99.90;;;;;;6196453;23;19915;-66
2022/08/13 04:51:51;;;;;;;;;;;17.80;99.90;;;;;;6196475;23;20223;-67
2022/08/13 04:54:17;;;;;;;;;;;17.80;99.90;;;;;;6221460;23;19919;-66
2022/08/13 04:56:43;;;;;;;;;;;17.80;99.90;;;;;;6221134;23;20322;-66
2022/08/13 04:59:08;;;;;;;;;;;17.80;99.90;;;;;;6221364;23;19970;-66
2022/08/13 05:01:34;;;;;;;;;;;17.80;99.90;;;;;;6221323;23;20211;-67
2022/08/13 05:03:59;;;;;;;;;;;17.80;99.90;;;;;;6196179;23;19915;-67
2022/08/13 05:06:26;;;;;;;;;;;17.80;99.90;;;;;;6247060;22;19955;-68
2022/08/13 05:08:52;;;;;;;;;;;17.90;99.90;;;;;;6221249;23;19922;-66
2022/08/13 05:11:19;;;;;;;;;;;17.90;99.90;;;;;;6221204;23;20203;-68
2022/08/13 05:13:45;;;;;;;;;;;17.90;99.90;;;;;;6220722;23;20345;-68
2022/08/13 05:16:12;;;;;;;;;;;17.90;99.90;;;;;;6247890;22;19915;-69
2022/08/13 05:18:38;;;;;;;;;;;17.90;99.90;;;;;;6221156;23;19915;-68
2022/08/13 05:21:06;;;;;;;;;;;18.10;99.90;;;;;;6247738;23;19916;-69
2022/08/13 05:23:35;;;;;;;;;;;18.10;99.90;;;;;;6221215;23;19965;-69
2022/08/13 05:26:01;;;;;;;;;;;18.20;99.90;;;;;;6247806;22;19961;-66
2022/08/13 05:28:27;;;;;;;;;;;18.30;99.90;;;;;;6220668;23;20077;-67
2022/08/13 05:30:52;;;;;;;;;;;18.50;99.90;;;;;;6220985;23;19915;-67
2022/08/13 05:33:19;;;;;;;;;;;18.50;99.90;;;;;;6221342;23;19947;-67
2022/08/13 05:35:48;;;;;;;;;;;18.60;99.90;;;;;;6220904;23;19915;-67
2022/08/13 05:38:16;;;;;;;;;;;18.70;99.90;;;;;;6221178;23;20222;-67
2022/08/13 05:40:42;;;;;;;;;;;18.80;99.90;;;;;;6220643;23;19915;-67
2022/08/13 05:43:11;;;;;;;;;;;18.90;99.90;;;;;;6221234;23;19915;-67
2022/08/13 05:45:37;;;;;;;;;;;19.00;99.90;;;;;;6247538;22;19922;-67
2022/08/13 05:48:03;;;;;;;;;;;19.10;99.90;;;;;;6219700;23;19920;-67
2022/08/13 05:50:33;;;;;;;;;;;19.20;99.90;;;;;;6245140;23;20332;-67
2022/08/13 05:53:08;;;;;;;;;;;19.30;99.90;;;;;;6220220;23;19916;-67
2022/08/13 05:55:34;;;;;;;;;;;19.50;99.90;;;;;;6219997;22;20004;-67
2022/08/13 05:58:00;;;;;;;;;;;19.60;99.90;;;;;;6220065;23;19925;-67
2022/08/13 06:03:25;;;;;;;;;;;19.90;99.90;;;;;;6220497;23;19977;-66
2022/08/13 06:05:58;;;;;;;;;;;20.10;99.90;;;;;;6220687;23;19998;-67
2022/08/13 06:08:28;;;;;;;;;;;20.30;99.90;;;;;;6220708;23;19923;-67
2022/08/13 06:10:54;;;;;;;;;;;20.50;99.90;;;;;;6195516;23;19965;-67
2022/08/13 06:13:20;;;;;;;;;;;20.60;99.90;;;;;;6245940;23;19938;-67
2022/08/13 06:15:58;;;;;;;;;;;20.80;99.90;;;;;;6220488;23;20338;-67
2022/08/13 06:18:29;;;;;;;;;;;21.00;99.90;;;;;;6220628;23;19915;-67
2022/08/13 06:20:55;;;;;;;;;;;21.20;99.90;;;;;;6246854;23;19916;-67
2022/08/13 06:23:22;;;;;;;;;;;21.30;99.90;;;;;;6247301;23;19919;-67
2022/08/13 06:25:51;;;;;;;;;;;21.50;99.90;;;;;;6247224;22;19930;-67
2022/08/13 06:28:19;;;;;;;;;;;21.70;99.90;;;;;;6220346;23;19958;-67
2022/08/13 06:30:45;;;;;;;;;;;21.80;99.90;;;;;;6195550;23;20238;-68
2022/08/13 06:33:11;;;;;;;;;;;21.90;99.90;;;;;;6246865;23;19915;-67
2022/08/13 06:35:36;;;;;;;;;;;22.10;99.90;;;;;;6195387;22;19920;-68
2022/08/13 06:38:04;;;;;;;;;;;22.20;99.90;;;;;;6220101;23;19922;-67
2022/08/13 06:40:35;;;;;;;;;;;22.40;99.90;;;;;;6220369;23;20314;-67
2022/08/13 06:43:01;;;;;;;;;;;22.50;99.90;;;;;;6220355;23;19915;-76
2022/08/13 06:45:27;;;;;;;;;;;22.60;99.90;;;;;;6218792;22;19953;-77
2022/08/13 06:47:59;;;;;;;;;;;22.70;99.80;;;;;;6220298;23;20254;-76
2022/08/13 06:50:26;;;;;;;;;;;22.80;99.60;;;;;;6220355;23;19912;-77
2022/08/13 06:52:51;;;;;;;;;;;23.00;99.10;;;;;;6195447;23;20319;-73
2022/08/13 06:55:17;;;;;;;;;;;23.20;99.30;;;;;;6220226;23;19986;-74
2022/08/13 06:57:43;;;;;;;;;;;23.40;99.70;;;;;;6245296;22;19994;-75
2022/08/13 07:00:10;;;;;;;;;;;23.40;98.10;;;;;;6219803;23;19958;-77
2022/08/13 07:02:37;;;;;;;;;;;23.40;96.90;;;;;;6194891;23;20311;-75
2022/08/13 07:05:04;;;;;;;;;;;23.60;96.70;;;;;;6219939;23;19918;-75
2022/08/13 07:07:31;;;;;;;;;;;23.80;97.70;;;;;;6194853;23;19919;-77
2022/08/13 07:09:58;;;;;;;;;;;23.90;96.90;;;;;;6246998;23;19911;-79
2022/08/13 07:12:24;;;;;;;;;;;24.00;95.90;;;;;;6220201;23;19923;-77
2022/08/13 07:14:50;;;;;;;;;;;24.00;95.40;;;;;;6220209;23;19977;-78
2022/08/13 07:17:15;;;;;;;;;;;24.10;95.90;;;;;;6220400;23;19916;-76
2022/08/13 07:19:42;;;;;;;;;;;24.30;95.50;;;;;;6220192;23;19915;-78
2022/08/13 07:22:07;;;;;;;;;;;24.40;95.40;;;;;;6195144;23;19922;-77
2022/08/13 07:24:33;;;;;;;;;;;24.60;97.10;;;;;;6220914;23;19939;-76
2022/08/13 07:27:07;;;;;;;;;;;24.80;94.00;;;;;;6223454;23;19938;-74
2022/08/13 07:29:36;;;;;;;;;;;24.90;93.60;;;;;;6222974;23;19923;-75
2022/08/13 07:32:03;;;;;;;;;;;24.90;93.10;;;;;;6220128;23;19923;-75
2022/08/13 07:34:31;;;;;;;;;;;25.10;93.70;;;;;;6220082;23;19966;-76
2022/08/13 07:36:57;;;;;;;;;;;25.10;92.90;;;;;;6194949;23;19916;-75
2022/08/13 07:39:23;;;;;;;;;;;25.20;93.00;;;;;;6248969;23;19923;-74
2022/08/13 07:41:48;;;;;;;;;;;25.30;92.70;;;;;;6222109;23;19958;-74
2022/08/13 07:44:23;;;;;;;;;;;25.40;92.50;;;;;;6221962;23;19916;-78
2022/08/13 07:46:50;;;;;;;;;;;25.40;92.00;;;;;;6197166;23;19915;-79
2022/08/13 07:49:16;;;;;;;;;;;25.60;91.70;;;;;;6223121;23;20233;-79
2022/08/13 07:51:42;;;;;;;;;;;25.70;91.90;;;;;;6222191;23;19922;-79
2022/08/13 07:54:09;;;;;;;;;;;25.80;93.20;;;;;;6196807;23;20007;-73
2022/08/13 07:56:34;;;;;;;;;;;25.90;92.70;;;;;;6221767;23;20229;-75
2022/08/13 07:59:06;;;;;;;;;;;26.10;91.70;;;;;;6221900;23;19916;-74
2022/08/13 08:01:51;;;;;;;;;;;26.10;91.10;;;;;;6222034;23;19915;-75
2022/08/13 08:04:18;;;;;;;;;;;26.30;90.70;;;;;;6194461;23;19920;-73
2022/08/13 08:06:47;;;;;;;;;;;26.40;90.60;;;;;;6191854;23;20002;-72
2022/08/13 08:09:21;;;;;;;;;;;26.40;89.70;;;;;;6191674;23;20315;-73
2022/08/13 08:14:37;;;;;;;;;;;26.50;90.70;;;;;;6196340;23;20341;-79
2022/08/13 08:17:05;;;;;;;;;;;26.60;86.00;;;;;;6191488;23;19955;-78
2022/08/13 08:19:31;;;;;;;;;;;26.70;86.80;;;;;;6191486;23;20278;-76
2022/08/13 08:22:03;;;;;;;;;;;26.90;85.70;;;;;;6191231;23;19987;-78
2022/08/13 08:24:32;;;;;;;;;;;27.10;82.50;;;;;;6168055;23;20067;-78
2022/08/13 08:27:02;;;;;;;;;;;27.20;82.30;;;;;;6142576;23;19963;-80
2022/08/13 08:29:31;;;;;;;;;;;27.30;84.30;;;;;;6218156;23;19919;-77
2022/08/13 08:32:01;;;;;;;;;;;27.50;84.80;;;;;;6191154;23;20234;-80
2022/08/13 08:34:27;;;;;;;;;;;27.80;84.90;;;;;;6191285;23;19970;-79
2022/08/13 08:36:56;;;;;;;;;;;27.70;81.80;;;;;;6191208;23;20262;-77
2022/08/13 08:44:54;;;;;;;;;;;27.80;79.00;;;;;;6191106;23;20318;-78
2022/08/13 08:47:19;;;;;;;;;;;27.70;79.30;;;;;;6191735;23;19991;-76
2022/08/13 08:49:45;;;;;;;;;;;28.00;78.70;;;;;;6190351;23;19911;-78
2022/08/13 08:52:11;;;;;;;;;;;28.00;79.20;;;;;;6217698;23;19916;-77
2022/08/13 08:58:40;;;;;;;;;;;28.20;73.60;;;;;;6067036;23;19964;-79
2022/08/13 09:01:42;;;;;;;;;;;;;;;;;;;;;
2022/08/13 09:15:21;;;;;;;;;;;28.50;71.00;;;;;;6010206;23;19935;-78
2022/08/13 09:18:56;;;;;;;;;;;28.30;69.90;;;;;;5900440;24;20315;-79
2022/08/13 09:21:44;;;;;;;;;;;28.60;69.60;;;;;;5910638;24;19915;-80
2022/08/13 09:31:36;;;;;;;;;;;;;;;;;;;;;
2022/08/13 09:44:58;;;;;;;;;;;28.70;66.50;;;;;;5954393;24;19969;-78
2022/08/13 09:47:36;;;;;;;;;;;28.90;66.30;;;;;;5977236;23;19957;-78
2022/08/13 09:50:02;;;;;;;;;;;29.00;66.90;;;;;;6104562;23;19911;-75
2022/08/13 09:52:28;;;;;;;;;;;29.00;65.20;;;;;;6190433;23;19912;-81
2022/08/13 09:54:56;;;;;;;;;;;29.20;64.00;;;;;;6190347;23;19919;-79
2022/08/13 10:01:35;;;;;;;;;;;29.00;65.20;;;;;;6193695;23;19912;-77
2022/08/13 10:04:06;;;;;;;;;;;29.00;65.30;;;;;;6211518;23;19961;-76
2022/08/13 10:06:57;;;;;;;;;;;29.10;65.00;;;;;;6226049;23;19998;-76
2022/08/13 10:09:26;;;;;;;;;;;29.20;65.40;;;;;;6220568;23;19911;-77
2022/08/13 10:11:55;;;;;;;;;;;29.20;64.90;;;;;;6220677;23;20313;-77
2022/08/13 10:14:21;;;;;;;;;;;29.00;64.50;;;;;;6195334;23;19990;-78
2022/08/13 10:16:47;;;;;;;;;;;29.30;66.90;;;;;;6220627;23;19961;-77
2022/08/13 10:19:12;;;;;;;;;;;29.30;61.70;;;;;;6220767;23;19912;-78
2022/08/13 10:21:38;;;;;;;;;;;29.20;62.70;;;;;;6195685;23;19991;-78
2022/08/13 10:24:07;;;;;;;;;;;29.40;61.60;;;;;;6220613;23;19954;-78
2022/08/13 10:26:33;;;;;;;;;;;29.30;60.10;;;;;;6220211;23;20273;-78
2022/08/13 10:28:59;;;;;;;;;;;29.60;61.50;;;;;;6220275;23;19947;-77
2022/08/13 10:31:28;;;;;;;;;;;29.50;58.70;;;;;;6195216;23;19938;-78
2022/08/13 10:33:54;;;;;;;;;;;29.60;58.60;;;;;;6220619;23;19915;-78
2022/08/13 10:36:21;;;;;;;;;;;29.50;59.90;;;;;;6220144;23;20234;-78
2022/08/13 10:38:47;;;;;;;;;;;29.60;59.70;;;;;;6219993;23;19919;-78
2022/08/13 10:41:13;;;;;;;;;;;29.60;59.90;;;;;;6220035;23;19911;-77
2022/08/13 10:43:39;;;;;;;;;;;29.70;59.90;;;;;;6220495;23;19911;-78
2022/08/13 10:46:07;;;;;;;;;;;29.70;59.50;;;;;;6220069;22;19916;-78
2022/08/13 10:48:32;;;;;;;;;;;29.70;60.70;;;;;;6218955;23;20234;-80
2022/08/13 10:50:58;;;;;;;;;;;29.60;60.20;;;;;;6218348;23;19986;-72
2022/08/13 10:59:33;;;;;;;;;;;29.70;58.70;;;;;;6244938;23;19923;-76
2022/08/13 11:01:59;;;;;;;;;;;30.00;57.00;;;;;;6223144;23;19915;-79
2022/08/13 11:04:26;;;;;;;;;;;29.90;57.70;;;;;;6214083;23;20290;-80
2022/08/13 11:06:53;;;;;;;;;;;29.90;58.10;;;;;;6213436;23;19943;-76
2022/08/13 11:09:18;;;;;;;;;;;29.90;57.80;;;;;;6188750;23;20316;-75
2022/08/13 11:11:44;;;;;;;;;;;29.90;57.90;;;;;;6213534;23;19923;-75
2022/08/13 11:14:10;;;;;;;;;;;30.00;57.70;;;;;;6213949;23;20263;-76
2022/08/13 11:16:56;;;;;;;;;;;29.90;56.70;;;;;;6213146;23;19987;-73
2022/08/13 11:19:25;;;;;;;;;;;30.10;56.90;;;;;;6212981;23;19922;-67
2022/08/13 11:21:51;;;;;;;;;;;29.90;55.40;;;;;;6213407;23;19916;-68
2022/08/13 11:24:18;;;;;;;;;;;29.90;56.00;;;;;;6188830;23;19916;-75
2022/08/13 11:26:45;;;;;;;;;;;29.80;55.70;;;;;;6213580;23;19991;-71
2022/08/13 11:29:11;;;;;;;;;;;30.00;54.90;;;;;;6213970;23;19959;-69
2022/08/13 11:31:37;;;;;;;;;;;29.90;55.70;;;;;;6214669;23;19920;-72
2022/08/13 11:34:02;;;;;;;;;;;30.10;56.90;;;;;;6190446;23;19916;-73
2022/08/13 11:36:28;;;;;;;;;;;30.20;56.10;;;;;;6216226;23;19915;-71
2022/08/13 11:38:54;;;;;;;;;;;30.20;55.60;;;;;;6214696;23;19970;-69
2022/08/13 11:41:20;;;;;;;;;;;30.50;54.10;;;;;;6189367;23;19916;-69
2022/08/13 11:43:46;;;;;;;;;;;30.40;54.40;;;;;;6215234;23;19920;-69
2022/08/13 11:46:14;;;;;;;;;;;30.30;56.00;;;;;;6213771;23;20396;-68
2022/08/13 11:48:40;;;;;;;;;;;30.20;53.60;;;;;;6214538;23;19912;-69
2022/08/13 11:51:06;;;;;;;;;;;30.10;53.90;;;;;;6214633;23;20346;-69
2022/08/13 11:53:31;;;;;;;;;;;30.20;54.50;;;;;;6214621;23;19954;-70
2022/08/13 11:55:57;;;;;;;;;;;30.10;54.20;;;;;;6214776;23;19923;-69
2022/08/13 11:58:23;;;;;;;;;;;30.20;55.70;;;;;;6214224;23;20437;-70
2022/08/13 12:00:48;;;;;;;;;;;30.30;53.80;;;;;;6189676;23;19916;-69
2022/08/13 12:03:14;;;;;;;;;;;30.40;54.70;;;;;;6214525;23;19920;-70
2022/08/13 12:05:39;;;;;;;;;;;30.40;53.70;;;;;;6189779;23;20366;-70
2022/08/13 12:08:15;;;;;;;;;;;30.20;54.20;;;;;;6189900;23;19912;-73
2022/08/13 12:10:41;;;;;;;;;;;30.20;54.00;;;;;;6189266;23;19947;-75
2022/08/13 12:13:07;;;;;;;;;;;30.40;54.70;;;;;;6214870;23;19916;-75
2022/08/13 12:15:38;;;;;;;;;;;30.50;53.40;;;;;;6189768;23;19912;-74
2022/08/13 12:18:10;;;;;;;;;;;30.50;53.90;;;;;;6214775;23;20222;-75
2022/08/13 12:20:42;;;;;;;;;;;30.50;51.60;;;;;;6190348;23;19918;-74
2022/08/13 12:23:13;;;;;;;;;;;30.40;50.50;;;;;;6189605;23;19915;-74
2022/08/13 12:25:38;;;;;;;;;;;30.50;52.40;;;;;;6191716;23;19912;-75
2022/08/13 12:28:22;;;;;;;;;;;30.50;52.50;;;;;;6174139;23;19942;-80
2022/08/13 12:30:49;;;;;;;;;;;30.40;51.40;;;;;;6195842;23;19935;-75
2022/08/13 12:33:16;;;;;;;;;;;30.40;52.60;;;;;;6189530;23;20238;-79
2022/08/13 12:35:41;;;;;;;;;;;30.60;51.50;;;;;;6190009;23;20273;-71
2022/08/13 12:38:08;;;;;;;;;;;30.70;53.50;;;;;;6214509;23;19970;-76
2022/08/13 12:40:34;;;;;;;;;;;30.70;51.00;;;;;;6189837;23;20215;-76
2022/08/13 12:43:00;;;;;;;;;;;30.60;52.70;;;;;;6189482;23;19916;-76
2022/08/13 12:45:25;;;;;;;;;;;30.70;50.80;;;;;;6164918;23;19916;-76
2022/08/13 12:47:51;;;;;;;;;;;30.50;50.60;;;;;;6214731;23;19916;-74
2022/08/13 12:50:17;;;;;;;;;;;30.80;49.60;;;;;;6214704;23;20235;-77
2022/08/13 12:52:43;;;;;;;;;;;30.60;50.10;;;;;;6189297;23;19919;-75
2022/08/13 12:55:09;;;;;;;;;;;30.60;49.70;;;;;;6214990;23;19916;-76
2022/08/13 12:57:34;;;;;;;;;;;30.70;51.10;;;;;;6214694;23;19916;-75
2022/08/13 13:00:00;;;;;;;;;;;30.90;50.00;;;;;;6214738;23;20230;-75
2022/08/13 13:02:26;;;;;;;;;;;30.70;50.80;;;;;;6189949;23;19916;-75
2022/08/13 13:04:51;;;;;;;;;;;30.80;51.90;;;;;;6220083;23;19916;-77
2022/08/13 13:07:17;;;;;;;;;;;30.70;49.80;;;;;;6194275;23;20312;-79
2022/08/13 13:09:42;;;;;;;;;;;30.60;50.20;;;;;;6219933;23;19915;-80
2022/08/13 13:12:08;;;;;;;;;;;30.80;50.40;;;;;;6219533;23;19918;-79
2022/08/13 13:14:33;;;;;;;;;;;30.70;49.00;;;;;;6194251;23;19911;-78
2022/08/13 13:16:59;;;;;;;;;;;30.80;50.00;;;;;;6220411;23;19941;-78
2022/08/13 13:19:25;;;;;;;;;;;30.90;49.20;;;;;;6220961;23;20029;-77
2022/08/13 13:21:50;;;;;;;;;;;30.80;49.70;;;;;;6221258;23;20327;-76
2022/08/13 16:39:18;;;;;;;;;;;30.10;58.50;;;;;;6239171;22;19930;-70
2022/08/13 16:42:05;;;;;;;;;;;29.80;59.70;;;;;;6160908;23;19930;-76
2022/08/13 16:44:31;;;;;;;;;;;29.50;61.00;;;;;;6185379;23;19966;-74
2022/08/13 16:46:57;;;;;;;;;;;29.30;61.20;;;;;;6185728;23;20330;-78
2022/08/13 16:49:24;;;;;;;;;;;29.20;62.30;;;;;;6161225;23;19920;-76
2022/08/13 16:51:52;;;;;;;;;;;29.00;62.20;;;;;;6185878;23;19939;-73
2022/08/13 16:54:17;;;;;;;;;;;28.70;62.70;;;;;;6185852;23;20243;-77
2022/08/13 16:56:44;;;;;;;;;;;28.50;63.90;;;;;;6185619;23;19916;-75
2022/08/13 16:59:09;;;;;;;;;;;28.30;64.50;;;;;;6186272;23;19920;-73
2022/08/13 17:01:35;;;;;;;;;;;28.10;64.40;;;;;;6186199;23;20247;-76
2022/08/13 17:09:29;;;;;;;;;;;27.70;66.60;;;;;;6185333;23;19974;-80
2022/08/13 17:11:57;;;;;;;;;;;27.50;67.50;;;;;;6184895;23;19916;-75
2022/08/13 17:14:25;;;;;;;;;;;27.50;68.10;;;;;;6186095;23;19955;-75
2022/08/13 17:16:59;;;;;;;;;;;27.40;68.80;;;;;;6160135;23;20338;-77
2022/08/13 17:19:26;;;;;;;;;;;27.30;69.10;;;;;;6160211;23;19916;-77
2022/08/13 17:21:52;;;;;;;;;;;27.10;70.60;;;;;;6185734;23;19923;-78
2022/08/13 17:24:17;;;;;;;;;;;27.10;70.60;;;;;;6160240;23;19917;-74
2022/08/13 17:26:46;;;;;;;;;;;27.00;70.70;;;;;;6185005;23;19916;-77
2022/08/13 17:29:17;;;;;;;;;;;26.90;71.40;;;;;;6185286;23;19944;-76
2022/08/13 17:31:43;;;;;;;;;;;26.70;72.80;;;;;;6185494;23;20332;-78
2022/08/13 17:34:13;;;;;;;;;;;26.70;71.60;;;;;;6161358;23;19923;-73
2022/08/13 17:36:39;;;;;;;;;;;26.60;73.60;;;;;;6186392;23;19920;-76
2022/08/13 17:39:05;;;;;;;;;;;26.60;73.90;;;;;;6185890;23;20287;-76
2022/08/13 17:41:31;;;;;;;;;;;26.50;74.70;;;;;;6165620;23;19927;-75
2022/08/13 17:43:56;;;;;;;;;;;26.40;76.00;;;;;;6165970;23;20014;-78
2022/08/13 17:46:22;;;;;;;;;;;26.30;76.30;;;;;;6190661;23;20342;-75
2022/08/13 17:48:48;;;;;;;;;;;26.20;77.90;;;;;;6165737;23;19959;-77
2022/08/13 17:51:15;;;;;;;;;;;26.10;79.00;;;;;;6190653;23;19920;-78
2022/08/13 17:53:41;;;;;;;;;;;26.00;78.20;;;;;;6165927;23;19922;-74
2022/08/13 17:56:19;;;;;;;;;;;25.90;80.30;;;;;;6190448;23;19943;-79
2022/08/13 17:58:46;;;;;;;;;;;25.80;81.50;;;;;;6190487;23;19920;-75
2022/08/13 18:01:13;;;;;;;;;;;25.60;83.40;;;;;;6217045;23;19915;-75
2022/08/13 18:03:39;;;;;;;;;;;25.60;84.20;;;;;;6165575;23;19973;-76
2022/08/13 18:06:06;;;;;;;;;;;25.60;85.90;;;;;;6190441;23;19951;-73
2022/08/13 18:08:32;;;;;;;;;;;25.50;86.60;;;;;;6190158;23;19919;-74
2022/08/13 18:11:01;;;;;;;;;;;25.40;87.00;;;;;;6189890;23;19966;-75
2022/08/13 18:13:29;;;;;;;;;;;25.30;89.90;;;;;;6190206;23;19915;-76
2022/08/13 18:15:58;;;;;;;;;;;25.20;90.40;;;;;;6189986;23;20228;-76
2022/08/13 18:18:27;;;;;;;;;;;25.10;91.60;;;;;;6164706;23;19927;-79
2022/08/13 18:20:52;;;;;;;;;;;25.00;93.10;;;;;;6189715;23;19947;-76
2022/08/13 18:23:18;;;;;;;;;;;24.90;93.90;;;;;;6190018;23;19939;-78
2022/08/13 18:25:44;;;;;;;;;;;24.80;94.80;;;;;;6165531;23;19939;-76
2022/08/13 18:28:12;;;;;;;;;;;24.70;95.20;;;;;;6216869;23;19962;-76
2022/08/13 18:30:38;;;;;;;;;;;24.70;96.10;;;;;;6165456;23;19916;-75
2022/08/13 18:33:05;;;;;;;;;;;24.70;96.30;;;;;;6190106;23;19958;-75
2022/08/13 18:35:31;;;;;;;;;;;24.60;97.20;;;;;;6164977;23;19987;-73
2022/08/13 18:37:57;;;;;;;;;;;24.60;97.00;;;;;;6189736;23;20333;-74
2022/08/13 18:40:23;;;;;;;;;;;24.50;96.80;;;;;;6165069;23;19920;-73
2022/08/13 18:42:50;;;;;;;;;;;24.50;97.60;;;;;;6190221;23;20358;-73
2022/08/13 18:45:17;;;;;;;;;;;24.40;98.00;;;;;;6165469;23;19920;-74
2022/08/13 18:47:43;;;;;;;;;;;24.20;98.70;;;;;;6165387;23;19920;-77
2022/08/13 18:50:10;;;;;;;;;;;24.20;98.90;;;;;;6164921;23;19923;-76